Andes — 5BFM3 — position and weather

sailwx.info

Track history (hours):
 
Tides and Currents Weather Stations Pressure Air Temp Water Temp Dewpoint Dewpoint Depression Visibility Wind Speed Wind Dir Waves Ship Positions

Andes

Last reported at 2016-May-29 13:20 UTC. Time now 2016-May-30 12:42 UTC.
Position N 28°38' W 093°14'.

Length 182 m; draft 11.6 m.

Type: Ship. MMSI: 209394000.

Date/timePositionNaut miles runAvg speedWind from/ knotsBaromVisibWave heightAir tempDewpointWater temp
2016-May-29 13:20N 28°38' W 093°14'1111.7
2016-May-29 12:24N 28°47' W 093°22'1312.9
2016-May-29 11:24N 28°57' W 093°31'2712.2
2016-May-29 09:12N 29°22' W 093°40'710.3
2016-May-29 08:34N 29°29' W 093°40'1211.9
2016-May-29 07:33N 29°38' W 093°49'10 9.8
2016-May-29 06:33N 29°46' W 093°56'5 5.1
2016-May-29 05:33N 29°51' W 093°58'0 0.0
2016-May-28 08:09N 29°51' W 093°58'0 0.0
2016-May-28 07:27N 29°51' W 093°58'1 0.0
2016-May-27 12:32N 29°50' W 093°58'8 7.7
2016-May-27 11:31N 29°44' W 093°52'10 9.4
2016-May-27 10:28N 29°35' W 093°47'4 0.2
2016-May-26 13:32N 29°36' W 093°42'0 0.0
2016-May-26 10:26N 29°36' W 093°42'0 0.0
2016-May-26 09:20N 29°36' W 093°42'0 0.1
2016-May-26 08:20N 29°36' W 093°42'0 0.0
2016-May-25 22:20N 29°36' W 093°42'19 9.3
2016-May-25 20:16N 29°16' W 093°40'1014.0
2016-May-25 19:32N 29°06' W 093°38'1614.2
2016-May-25 18:24N 28°54' W 093°27'1011.7
2016-May-25 17:32N 28°45' W 093°20'1111.6
2016-May-25 16:33N 28°36' W 093°12'1411.5
2016-May-25 15:20N 28°25' W 093°03'  
Track history (hours):
 
Tides and Currents Weather Stations Pressure Air Temp Water Temp Dewpoint Dewpoint Depression Visibility Wind Speed Wind Dir Waves Ship Positions

Andes

Last reported at 2016-May-29 13:20 UTC. Time now 2016-May-30 12:42 UTC.
Position N 28°38' W 093°14'.

Length 182 m; draft 11.6 m.

Type: Ship. MMSI: 209394000.

Date/timePositionNaut miles runAvg speedWind from/ knotsBaromVisibWave heightAir tempDewpointWater temp
2016-May-29 13:20N 28°38' W 093°14'1111.7
2016-May-29 12:24N 28°47' W 093°22'1312.9
2016-May-29 11:24N 28°57' W 093°31'2712.2
2016-May-29 09:12N 29°22' W 093°40'710.3
2016-May-29 08:34N 29°29' W 093°40'1211.9
2016-May-29 07:33N 29°38' W 093°49'10 9.8
2016-May-29 06:33N 29°46' W 093°56'5 5.1
2016-May-29 05:33N 29°51' W 093°58'0 0.0
2016-May-28 08:09N 29°51' W 093°58'0 0.0
2016-May-28 07:27N 29°51' W 093°58'1 0.0
2016-May-27 12:32N 29°50' W 093°58'8 7.7
2016-May-27 11:31N 29°44' W 093°52'10 9.4
2016-May-27 10:28N 29°35' W 093°47'4 0.2
2016-May-26 13:32N 29°36' W 093°42'0 0.0
2016-May-26 10:26N 29°36' W 093°42'0 0.0
2016-May-26 09:20N 29°36' W 093°42'0 0.1
2016-May-26 08:20N 29°36' W 093°42'0 0.0
2016-May-25 22:20N 29°36' W 093°42'19 9.3
2016-May-25 20:16N 29°16' W 093°40'1014.0
2016-May-25 19:32N 29°06' W 093°38'1614.2
2016-May-25 18:24N 28°54' W 093°27'1011.7
2016-May-25 17:32N 28°45' W 093°20'1111.6
2016-May-25 16:33N 28°36' W 093°12'1411.5
2016-May-25 15:20N 28°25' W 093°03'  

Dump ship's entire track history